sensor_id;sensor_type;location;lat;lon;timestamp;pressure;altitude;pressure_sealevel;temperature;humidity
10392;BME280;5242;49.244;6.774;2023-02-14T00:05:29;101451.25;;;-0.91;84.07
10392;BME280;5242;49.244;6.774;2023-02-14T00:13:21;101450.78;;;-0.99;85.37
10392;BME280;5242;49.244;6.774;2023-02-14T00:21:13;101445.31;;;-1.04;85.76
10392;BME280;5242;49.244;6.774;2023-02-14T00:29:07;101430.19;;;-0.99;84.94
10392;BME280;5242;49.244;6.774;2023-02-14T00:36:59;101431.72;;;-0.91;85.02
10392;BME280;5242;49.244;6.774;2023-02-14T00:44:51;101436.50;;;-0.93;84.01
10392;BME280;5242;49.244;6.774;2023-02-14T00:52:42;101428.44;;;-1.05;83.75
10392;BME280;5242;49.244;6.774;2023-02-14T01:00:34;101427.28;;;-1.09;84.32
10392;BME280;5242;49.244;6.774;2023-02-14T01:08:26;101422.81;;;-1.15;83.02
10392;BME280;5242;49.244;6.774;2023-02-14T01:16:20;101428.50;;;-1.35;84.18
10392;BME280;5242;49.244;6.774;2023-02-14T01:24:13;101426.22;;;-1.50;85.43
10392;BME280;5242;49.244;6.774;2023-02-14T01:32:05;101437.72;;;-1.49;85.62
10392;BME280;5242;49.244;6.774;2023-02-14T01:39:57;101430.44;;;-1.42;84.50
10392;BME280;5242;49.244;6.774;2023-02-14T01:47:52;101423.78;;;-1.51;85.99
10392;BME280;5242;49.244;6.774;2023-02-14T01:55:48;101418.75;;;-1.60;86.89
10392;BME280;5242;49.244;6.774;2023-02-14T02:03:52;101424.22;;;-1.55;87.22
10392;BME280;5242;49.244;6.774;2023-02-14T02:11:44;101411.47;;;-1.52;85.76
10392;BME280;5242;49.244;6.774;2023-02-14T02:28:23;101430.50;;;-1.61;84.49
10392;BME280;5242;49.244;6.774;2023-02-14T02:37:12;101417.28;;;-1.74;85.03
10392;BME280;5242;49.244;6.774;2023-02-14T03:00:54;101401.31;;;-2.11;87.14
10392;BME280;5242;49.244;6.774;2023-02-14T03:08:46;101410.94;;;-2.10;86.63
10392;BME280;5242;49.244;6.774;2023-02-14T03:16:46;101407.09;;;-2.14;85.89
10392;BME280;5242;49.244;6.774;2023-02-14T03:25:03;101414.34;;;-2.21;86.94
10392;BME280;5242;49.244;6.774;2023-02-14T03:33:00;101409.47;;;-2.24;86.83
10392;BME280;5242;49.244;6.774;2023-02-14T03:40:57;101403.75;;;-2.28;86.82
10392;BME280;5242;49.244;6.774;2023-02-14T03:48:51;101413.25;;;-2.13;86.71
10392;BME280;5242;49.244;6.774;2023-02-14T03:56:51;101402.41;;;-2.19;85.77
10392;BME280;5242;49.244;6.774;2023-02-14T04:04:48;101406.72;;;-2.36;86.92
10392;BME280;5242;49.244;6.774;2023-02-14T04:12:41;101408.06;;;-2.45;87.66
10392;BME280;5242;49.244;6.774;2023-02-14T04:20:32;101408.06;;;-2.45;88.39
10392;BME280;5242;49.244;6.774;2023-02-14T04:28:24;101410.50;;;-2.44;87.44
10392;BME280;5242;49.244;6.774;2023-02-14T04:36:16;101410.88;;;-2.40;87.21
10392;BME280;5242;49.244;6.774;2023-02-14T04:44:08;101409.31;;;-2.48;86.59
10392;BME280;5242;49.244;6.774;2023-02-14T04:52:00;101412.31;;;-2.63;86.95
10392;BME280;5242;49.244;6.774;2023-02-14T04:59:52;101402.97;;;-2.72;87.11
10392;BME280;5242;49.244;6.774;2023-02-14T05:07:43;101407.69;;;-2.74;87.88
10392;BME280;5242;49.244;6.774;2023-02-14T05:15:38;101403.03;;;-2.78;86.21
10392;BME280;5242;49.244;6.774;2023-02-14T05:23:30;101397.88;;;-2.73;87.14
10392;BME280;5242;49.244;6.774;2023-02-14T05:31:22;101411.25;;;-2.80;88.36
10392;BME280;5242;49.244;6.774;2023-02-14T05:39:14;101405.53;;;-2.83;88.65
10392;BME280;5242;49.244;6.774;2023-02-14T05:47:05;101406.84;;;-2.93;89.01
10392;BME280;5242;49.244;6.774;2023-02-14T05:54:57;101413.88;;;-2.98;89.31
10392;BME280;5242;49.244;6.774;2023-02-14T06:02:49;101414.69;;;-2.98;88.83
10392;BME280;5242;49.244;6.774;2023-02-14T06:10:41;101420.06;;;-3.04;88.63
10392;BME280;5242;49.244;6.774;2023-02-14T06:18:33;101419.50;;;-3.13;89.00
10392;BME280;5242;49.244;6.774;2023-02-14T06:26:25;101420.59;;;-3.21;89.10
10392;BME280;5242;49.244;6.774;2023-02-14T06:34:18;101411.19;;;-3.23;89.14
10392;BME280;5242;49.244;6.774;2023-02-14T06:42:10;101415.69;;;-3.24;89.36
10392;BME280;5242;49.244;6.774;2023-02-14T06:50:02;101419.38;;;-3.25;89.30
10392;BME280;5242;49.244;6.774;2023-02-14T06:57:55;101430.00;;;-3.18;90.09
10392;BME280;5242;49.244;6.774;2023-02-14T07:05:47;101417.44;;;-3.11;89.32
10392;BME280;5242;49.244;6.774;2023-02-14T07:13:39;101433.28;;;-2.66;91.54
10392;BME280;5242;49.244;6.774;2023-02-14T07:21:30;101429.78;;;-1.26;90.51
10392;BME280;5242;49.244;6.774;2023-02-14T07:29:22;101433.41;;;0.09;85.55
10392;BME280;5242;49.244;6.774;2023-02-14T07:37:14;101430.69;;;0.61;82.28
10392;BME280;5242;49.244;6.774;2023-02-14T07:45:08;101424.78;;;1.83;83.06
10392;BME280;5242;49.244;6.774;2023-02-14T07:53:12;101427.41;;;3.88;78.41
10392;BME280;5242;49.244;6.774;2023-02-14T08:01:03;101406.63;;;5.38;74.88
10392;BME280;5242;49.244;6.774;2023-02-14T08:08:55;101401.88;;;6.89;70.54
10392;BME280;5242;49.244;6.774;2023-02-14T08:16:47;101403.06;;;8.14;69.85
10392;BME280;5242;49.244;6.774;2023-02-14T08:24:39;101387.50;;;9.55;61.84
10392;BME280;5242;49.244;6.774;2023-02-14T08:32:30;101394.13;;;10.05;63.42
10392;BME280;5242;49.244;6.774;2023-02-14T08:40:22;101390.09;;;10.30;62.18
10392;BME280;5242;49.244;6.774;2023-02-14T08:48:14;101395.59;;;10.52;62.85
10392;BME280;5242;49.244;6.774;2023-02-14T08:56:08;101384.44;;;11.70;60.76
10392;BME280;5242;49.244;6.774;2023-02-14T09:04:00;101379.13;;;12.57;59.25
10392;BME280;5242;49.244;6.774;2023-02-14T09:11:52;101379.53;;;13.29;58.72
10392;BME280;5242;49.244;6.774;2023-02-14T09:19:44;101384.13;;;13.84;56.58
10392;BME280;5242;49.244;6.774;2023-02-14T09:27:36;101374.97;;;14.72;53.21
10392;BME280;5242;49.244;6.774;2023-02-14T09:35:28;101371.16;;;16.17;53.17
10392;BME280;5242;49.244;6.774;2023-02-14T09:43:51;101360.28;;;17.69;41.54
10392;BME280;5242;49.244;6.774;2023-02-14T09:51:48;101359.28;;;18.47;42.90
10392;BME280;5242;49.244;6.774;2023-02-14T09:59:48;101356.53;;;18.47;47.98
10392;BME280;5242;49.244;6.774;2023-02-14T10:07:59;101348.75;;;18.53;45.42
10392;BME280;5242;49.244;6.774;2023-02-14T10:16:01;101342.50;;;19.18;37.93
10392;BME280;5242;49.244;6.774;2023-02-14T10:24:03;101336.66;;;19.69;39.07
10392;BME280;5242;49.244;6.774;2023-02-14T10:32:02;101343.03;;;20.00;39.00
10392;BME280;5242;49.244;6.774;2023-02-14T10:48:50;101334.28;;;18.01;41.54
10392;BME280;5242;49.244;6.774;2023-02-14T10:57:00;101318.38;;;17.59;43.78
10392;BME280;5242;49.244;6.774;2023-02-14T11:04:53;101315.56;;;15.96;40.96
10392;BME280;5242;49.244;6.774;2023-02-14T11:12:45;101316.28;;;14.10;46.98
10392;BME280;5242;49.244;6.774;2023-02-14T11:20:37;101301.91;;;12.86;48.42
10392;BME280;5242;49.244;6.774;2023-02-14T11:28:29;101287.84;;;12.23;48.67
10392;BME280;5242;49.244;6.774;2023-02-14T11:36:22;101279.00;;;11.34;49.57
10392;BME280;5242;49.244;6.774;2023-02-14T11:44:17;101272.25;;;11.31;50.75
10392;BME280;5242;49.244;6.774;2023-02-14T11:52:14;101264.38;;;12.48;48.57
10392;BME280;5242;49.244;6.774;2023-02-14T12:00:16;101241.41;;;13.35;46.61
10392;BME280;5242;49.244;6.774;2023-02-14T12:08:09;101218.75;;;14.64;45.27
10392;BME280;5242;49.244;6.774;2023-02-14T12:16:01;101203.22;;;16.22;44.29
10392;BME280;5242;49.244;6.774;2023-02-14T12:31:50;101181.09;;;17.10;39.32
10392;BME280;5242;49.244;6.774;2023-02-14T12:40:50;101159.34;;;14.80;43.23
10392;BME280;5242;49.244;6.774;2023-02-14T12:48:45;101146.03;;;15.31;44.44
10392;BME280;5242;49.244;6.774;2023-02-14T13:13:28;101090.91;;;14.84;42.84
10392;BME280;5242;49.244;6.774;2023-02-14T13:21:25;101080.53;;;13.61;45.31
10392;BME280;5242;49.244;6.774;2023-02-14T13:29:21;101063.28;;;13.27;45.77
10392;BME280;5242;49.244;6.774;2023-02-14T13:37:19;101073.81;;;12.87;46.49
10392;BME280;5242;49.244;6.774;2023-02-14T13:53:40;101056.16;;;12.16;47.61
10392;BME280;5242;49.244;6.774;2023-02-14T14:01:43;101050.94;;;11.68;47.14
10392;BME280;5242;49.244;6.774;2023-02-14T14:17:41;101053.88;;;11.45;47.43
10392;BME280;5242;49.244;6.774;2023-02-14T14:25:37;101046.34;;;11.16;47.98
10392;BME280;5242;49.244;6.774;2023-02-14T14:33:32;101048.22;;;10.63;49.16
10392;BME280;5242;49.244;6.774;2023-02-14T14:41:28;101043.84;;;10.22;49.46
10392;BME280;5242;49.244;6.774;2023-02-14T14:49:21;101036.50;;;9.92;49.57
10392;BME280;5242;49.244;6.774;2023-02-14T14:57:16;101042.97;;;9.73;50.00
10392;BME280;5242;49.244;6.774;2023-02-14T15:05:39;69656.28;;;-145.40;100.00
10392;BME280;5242;49.244;6.774;2023-02-14T15:13:35;69656.28;;;-145.40;100.00
10392;BME280;5242;49.244;6.774;2023-02-14T15:21:40;69656.28;;;-145.40;100.00
10392;BME280;5242;49.244;6.774;2023-02-14T15:29:35;69656.28;;;-145.40;100.00
10392;BME280;5242;49.244;6.774;2023-02-14T15:37:27;69656.28;;;-145.40;100.00
10392;BME280;5242;49.244;6.774;2023-02-14T16:01:10;69656.28;;;-145.40;100.00
10392;BME280;5242;49.244;6.774;2023-02-14T16:09:05;69656.28;;;-145.40;100.00
10392;BME280;5242;49.244;6.774;2023-02-14T16:17:06;69656.28;;;-145.40;100.00
10392;BME280;5242;49.244;6.774;2023-02-14T16:25:01;69656.28;;;-145.40;100.00
10392;BME280;5242;49.244;6.774;2023-02-14T16:32:53;69656.28;;;-145.40;100.00
10392;BME280;5242;49.244;6.774;2023-02-14T16:40:51;69656.28;;;-145.40;100.00
10392;BME280;5242;49.244;6.774;2023-02-14T16:48:45;69656.28;;;-145.40;100.00
10392;BME280;5242;49.244;6.774;2023-02-14T16:56:47;69656.28;;;-145.40;100.00
10392;BME280;5242;49.244;6.774;2023-02-14T17:04:41;69656.28;;;-145.40;100.00
10392;BME280;5242;49.244;6.774;2023-02-14T17:12:37;69656.28;;;-145.40;100.00
10392;BME280;5242;49.244;6.774;2023-02-14T17:20:31;69656.28;;;-145.40;100.00
10392;BME280;5242;49.244;6.774;2023-02-14T17:28:23;69656.28;;;-145.40;100.00
10392;BME280;5242;49.244;6.774;2023-02-14T17:36:17;69656.28;;;-145.40;100.00
10392;BME280;5242;49.244;6.774;2023-02-14T17:44:08;69656.28;;;-145.40;100.00
10392;BME280;5242;49.244;6.774;2023-02-14T17:52:01;69656.28;;;-145.40;100.00
10392;BME280;5242;49.244;6.774;2023-02-14T17:59:52;69656.28;;;-145.40;100.00
10392;BME280;5242;49.244;6.774;2023-02-14T18:07:44;69656.28;;;-145.40;100.00
10392;BME280;5242;49.244;6.774;2023-02-14T18:15:36;69656.28;;;-145.40;100.00
10392;BME280;5242;49.244;6.774;2023-02-14T18:23:28;69656.28;;;-145.40;100.00
10392;BME280;5242;49.244;6.774;2023-02-14T18:31:21;69656.28;;;-145.40;100.00
10392;BME280;5242;49.244;6.774;2023-02-14T18:39:13;69656.28;;;-145.40;100.00
10392;BME280;5242;49.244;6.774;2023-02-14T18:47:05;69656.28;;;-145.40;100.00
10392;BME280;5242;49.244;6.774;2023-02-14T18:54:57;69656.28;;;-145.40;100.00
10392;BME280;5242;49.244;6.774;2023-02-14T19:02:49;69656.28;;;-145.40;100.00
10392;BME280;5242;49.244;6.774;2023-02-14T19:10:42;69656.28;;;-145.40;100.00
10392;BME280;5242;49.244;6.774;2023-02-14T19:18:33;69656.28;;;-145.40;100.00
10392;BME280;5242;49.244;6.774;2023-02-14T19:26:30;69656.28;;;-145.40;100.00
10392;BME280;5242;49.244;6.774;2023-02-14T19:34:26;69656.28;;;-145.40;100.00
10392;BME280;5242;49.244;6.774;2023-02-14T19:42:20;69656.28;;;-145.40;100.00
10392;BME280;5242;49.244;6.774;2023-02-14T19:50:11;69656.28;;;-145.40;100.00
10392;BME280;5242;49.244;6.774;2023-02-14T19:58:05;69656.28;;;-145.40;100.00
10392;BME280;5242;49.244;6.774;2023-02-14T20:05:57;69656.28;;;-145.40;100.00
10392;BME280;5242;49.244;6.774;2023-02-14T20:13:48;69656.28;;;-145.40;100.00
10392;BME280;5242;49.244;6.774;2023-02-14T20:21:42;69656.28;;;-145.40;100.00
10392;BME280;5242;49.244;6.774;2023-02-14T20:29:35;69656.28;;;-145.40;100.00
10392;BME280;5242;49.244;6.774;2023-02-14T20:37:29;69656.28;;;-145.40;100.00
10392;BME280;5242;49.244;6.774;2023-02-14T20:45:21;69656.28;;;-145.40;100.00
10392;BME280;5242;49.244;6.774;2023-02-14T20:53:13;69656.28;;;-145.40;100.00
10392;BME280;5242;49.244;6.774;2023-02-14T21:01:15;69656.28;;;-145.40;100.00
10392;BME280;5242;49.244;6.774;2023-02-14T21:09:07;69656.28;;;-145.40;100.00
10392;BME280;5242;49.244;6.774;2023-02-14T21:16:59;69656.28;;;-145.40;100.00
10392;BME280;5242;49.244;6.774;2023-02-14T21:24:50;69656.28;;;-145.40;100.00
10392;BME280;5242;49.244;6.774;2023-02-14T21:32:42;69656.28;;;-145.40;100.00
10392;BME280;5242;49.244;6.774;2023-02-14T21:40:34;69656.28;;;-145.40;100.00
10392;BME280;5242;49.244;6.774;2023-02-14T21:48:26;69656.28;;;-145.40;100.00
10392;BME280;5242;49.244;6.774;2023-02-14T21:56:38;69656.28;;;-145.40;100.00
10392;BME280;5242;49.244;6.774;2023-02-14T22:04:29;69656.28;;;-145.40;100.00
10392;BME280;5242;49.244;6.774;2023-02-14T22:12:21;69656.28;;;-145.40;100.00
10392;BME280;5242;49.244;6.774;2023-02-14T22:20:13;69656.28;;;-145.40;100.00
10392;BME280;5242;49.244;6.774;2023-02-14T22:28:05;69656.28;;;-145.40;100.00
10392;BME280;5242;49.244;6.774;2023-02-14T22:35:57;69656.28;;;-145.40;100.00
10392;BME280;5242;49.244;6.774;2023-02-14T22:43:51;69656.28;;;-145.40;100.00
10392;BME280;5242;49.244;6.774;2023-02-14T22:51:43;69656.28;;;-145.40;100.00
10392;BME280;5242;49.244;6.774;2023-02-14T22:59:35;69656.28;;;-145.40;100.00
10392;BME280;5242;49.244;6.774;2023-02-14T23:07:27;69656.28;;;-145.40;100.00
10392;BME280;5242;49.244;6.774;2023-02-14T23:15:18;69656.28;;;-145.40;100.00
10392;BME280;5242;49.244;6.774;2023-02-14T23:23:30;69656.28;;;-145.40;100.00
10392;BME280;5242;49.244;6.774;2023-02-14T23:31:22;69656.28;;;-145.40;100.00
10392;BME280;5242;49.244;6.774;2023-02-14T23:39:14;69656.28;;;-145.40;100.00
10392;BME280;5242;49.244;6.774;2023-02-14T23:47:07;69656.28;;;-145.40;100.00
10392;BME280;5242;49.244;6.774;2023-02-14T23:54:59;69656.28;;;-145.40;100.00
